Time;durP1;ratioP1;P1;durP2;ratioP2;P2;SDS_P1;SDS_P2;PMS_P1;PMS_P2;Temp;Humidity;BMP_temperature;BMP_pressure;BME280_temperature;BME280_humidity;BME280_pressure;Samples;Min_cycle;Max_cycle;Signal;HPM_P1;HPM_P2
2021/11/01 00:01:05;;;;;;;63.35;30.15;;;;;;;2.26;95.59;100006.69;1626579;88;21497;-78
2021/11/01 00:03:32;;;;;;;60.95;29.35;;;;;;;2.26;96.25;100000.73;1626798;86;21030;-78
2021/11/01 00:06:00;;;;;;;62.25;30.60;;;;;;;2.27;96.27;100001.55;1626643;88;21057;-78
2021/11/01 00:08:28;;;;;;;53.75;28.77;;;;;;;2.25;96.18;99993.67;1626705;88;21021;-80
2021/11/01 00:10:55;;;;;;;56.15;28.77;;;;;;;2.25;96.13;99998.28;1626731;88;21815;-79
2021/11/01 00:13:23;;;;;;;51.80;25.80;;;;;;;2.21;95.72;99995.78;1626603;88;21457;-77
2021/11/01 00:15:49;;;;;;;55.48;27.07;;;;;;;2.14;95.16;99995.96;1614157;88;20894;-83
2021/11/01 00:18:17;;;;;;;62.50;27.82;;;;;;;2.06;94.55;99999.63;1613976;88;22174;-83
2021/11/01 00:20:43;;;;;;;49.58;25.20;;;;;;;1.96;93.94;99996.23;1614143;88;21556;-81
2021/11/01 00:23:10;;;;;;;54.00;27.45;;;;;;;1.86;93.56;99996.08;1614270;89;21525;-77
2021/11/01 00:25:38;;;;;;;67.65;30.82;;;;;;;1.73;93.08;99986.44;1614052;88;21033;-77
2021/11/01 00:28:05;;;;;;;65.67;33.53;;;;;;;1.62;92.78;99984.64;1614390;88;21056;-77
2021/11/01 00:30:31;;;;;;;71.40;33.40;;;;;;;1.53;92.99;99986.11;1614025;89;21481;-77
2021/11/01 00:32:58;;;;;;;68.30;33.23;;;;;;;1.42;93.02;99973.48;1614348;88;21012;-76
2021/11/01 00:35:24;;;;;;;78.67;37.90;;;;;;;1.36;93.24;99985.28;1614059;89;23385;-76
2021/11/01 00:37:51;;;;;;;83.35;40.80;;;;;;;1.30;93.23;99974.90;1614172;89;21456;-75
2021/11/01 00:40:18;;;;;;;71.70;36.33;;;;;;;1.26;93.46;99970.52;1614131;89;21017;-74
2021/11/01 00:42:45;;;;;;;75.62;36.23;;;;;;;1.24;93.44;99970.47;1614022;87;20996;-75
2021/11/01 00:45:12;;;;;;;74.22;34.53;;;;;;;1.18;93.20;99971.44;1614079;89;20958;-76
2021/11/01 00:47:39;;;;;;;76.00;36.73;;;;;;;1.13;93.09;99964.63;1614112;89;21171;-76
2021/11/01 00:50:07;;;;;;;74.15;36.38;;;;;;;1.07;93.15;99961.01;1614069;89;20973;-75
2021/11/01 00:52:34;;;;;;;74.95;35.45;;;;;;;1.05;93.16;99967.72;1614194;89;21414;-75
2021/11/01 00:55:03;;;;;;;72.17;33.65;;;;;;;1.01;93.13;99964.69;1614076;89;21481;-76
2021/11/01 00:57:29;;;;;;;71.00;35.38;;;;;;;0.96;93.07;99960.00;1614210;87;21001;-76
2021/11/01 01:00:00;;;;;;;74.12;35.92;;;;;;;0.93;93.07;99955.61;1614210;87;21864;-76
2021/11/01 01:02:26;;;;;;;70.37;34.15;;;;;;;0.89;93.05;99953.11;1613621;87;20949;-76
2021/11/01 01:04:53;;;;;;;71.17;34.08;;;;;;;0.86;92.90;99950.88;1614233;89;21485;-76
2021/11/01 01:07:20;;;;;;;60.35;31.33;;;;;;;0.81;92.72;99954.31;1614003;89;21046;-78
2021/11/01 01:09:47;;;;;;;60.23;29.23;;;;;;;0.76;92.65;99960.16;1614222;89;20957;-77
2021/11/01 01:12:14;;;;;;;58.35;28.55;;;;;;;0.68;92.50;99959.19;1614011;89;21179;-76
2021/11/01 01:14:49;;;;;;;59.08;29.07;;;;;;;0.62;92.52;99948.28;1613867;88;20957;-77
2021/11/01 01:17:10;;;;;;;60.63;30.25;;;;;;;0.58;92.53;99946.30;1613128;88;20965;-77
2021/11/01 01:19:50;;;;;;;59.85;29.45;;;;;;;0.51;92.43;99938.89;1614053;89;21006;-77
2021/11/01 01:22:14;;;;;;;59.83;29.87;;;;;;;0.46;92.46;99942.31;1613383;88;21445;-78
2021/11/01 01:24:40;;;;;;;52.67;28.45;;;;;;;0.42;92.56;99940.33;1613935;88;21636;-79
2021/11/01 01:27:06;;;;;;;61.77;29.12;;;;;;;0.38;92.70;99939.98;1614009;87;21013;-87
2021/11/01 01:29:33;;;;;;;62.80;30.75;;;;;;;0.34;92.86;99930.72;1614169;88;20969;-84
2021/11/01 01:31:59;;;;;;;59.15;29.55;;;;;;;0.32;93.02;99932.84;1614179;89;21493;-84
2021/11/01 01:34:26;;;;;;;67.72;31.70;;;;;;;0.30;93.09;99924.98;1614081;89;21492;-84
2021/11/01 01:36:52;;;;;;;60.17;30.12;;;;;;;0.28;93.12;99927.09;1614118;87;21132;-83
2021/11/01 01:39:19;;;;;;;67.53;30.27;;;;;;;0.28;93.00;99922.23;1614026;87;20962;-84
2021/11/01 01:41:46;;;;;;;59.13;28.67;;;;;;;0.24;93.09;99925.94;1613943;89;20926;-83
2021/11/01 01:44:14;;;;;;;62.88;29.77;;;;;;;0.22;93.03;99923.19;1613974;87;20957;-80
2021/11/01 01:46:41;;;;;;;61.95;30.23;;;;;;;0.21;93.08;99920.19;1614068;88;21017;-84
2021/11/01 01:49:08;;;;;;;57.78;30.20;;;;;;;0.19;93.05;99921.78;1594180;89;21177;-85
2021/11/01 01:51:34;;;;;;;66.62;30.43;;;;;;;0.17;93.00;99925.77;1614205;87;20925;-85
2021/11/01 01:54:01;;;;;;;57.27;28.10;;;;;;;0.14;92.96;99920.85;1613990;89;20969;-84
2021/11/01 01:56:28;;;;;;;65.70;33.10;;;;;;;0.12;92.90;99922.97;1614077;89;21081;-81
2021/11/01 01:59:02;;;;;;;65.90;31.27;;;;;;;0.07;92.70;99916.11;1614520;89;20970;-84
2021/11/01 02:01:32;;;;;;;71.50;31.52;;;;;;;0.02;92.65;99915.47;1613082;88;21830;-87
2021/11/01 02:03:59;;;;;;;67.32;33.10;;;;;;;-0.02;92.87;99925.95;1614024;87;21537;-87
2021/11/01 02:06:39;;;;;;;71.00;32.63;;;;;;;-0.03;92.88;99922.97;1614355;89;21551;-88
2021/11/01 02:09:25;;;;;;;66.40;29.75;;;;;;;-0.05;92.86;99918.86;1608052;87;21016;-89
2021/11/01 02:12:02;;;;;;;61.42;29.92;;;;;;;-0.08;92.97;99917.98;1614289;89;20973;-85
2021/11/01 02:14:39;;;;;;;59.77;30.92;;;;;;;-0.09;93.32;99917.17;1616570;88;21792;-82
2021/11/01 02:17:06;;;;;;;62.10;32.53;;;;;;;-0.06;93.65;99914.52;1621975;87;21580;-80
2021/11/01 02:19:37;;;;;;;56.83;29.70;;;;;;;-0.04;93.88;99910.53;1626736;88;20933;-81
2021/11/01 02:22:08;;;;;;;75.30;36.08;;;;;;;-0.01;93.91;99909.23;1607478;88;20969;-79
2021/11/01 02:24:41;;;;;;;71.55;34.65;;;;;;;0.00;93.91;99901.42;1626803;88;21068;-81
2021/11/01 02:27:10;;;;;;;71.45;35.13;;;;;;;0.02;94.13;99902.51;1626143;88;21209;-81
2021/11/01 02:29:36;;;;;;;69.27;33.98;;;;;;;0.04;94.40;99897.69;1606665;88;21072;-81
2021/11/01 02:32:06;;;;;;;70.42;34.95;;;;;;;0.07;94.64;99895.87;1626937;88;21452;-80
2021/11/01 02:34:34;;;;;;;73.47;35.43;;;;;;;0.11;94.80;99891.63;1626486;88;20903;-80
2021/11/01 02:37:00;;;;;;;66.28;33.58;;;;;;;0.15;94.92;99893.61;1626646;88;20962;-80
2021/11/01 02:39:29;;;;;;;69.42;33.53;;;;;;;0.18;95.22;99884.22;1626689;88;21824;-81
2021/11/01 02:41:55;;;;;;;71.30;34.50;;;;;;;0.22;95.17;99887.55;1626710;88;21010;-78
2021/11/01 02:44:22;;;;;;;74.22;36.53;;;;;;;0.23;94.97;99887.02;1629075;86;21066;-79
2021/11/01 02:46:49;;;;;;;74.85;35.38;;;;;;;0.23;95.16;99891.07;1631380;86;21543;-80
2021/11/01 02:49:15;;;;;;;63.28;31.40;;;;;;;0.25;95.77;99887.60;1626325;88;21013;-79
2021/11/01 02:51:42;;;;;;;72.85;35.28;;;;;;;0.29;96.43;99894.16;1632442;86;22994;-79
2021/11/01 02:54:10;;;;;;;69.67;35.23;;;;;;;0.40;98.34;99891.95;1633737;86;20968;-79
2021/11/01 02:56:37;;;;;;;75.75;36.63;;;;;;;0.59;100.00;99891.20;1632154;86;21548;-78
2021/11/01 02:59:04;;;;;;;70.83;35.00;;;;;;;0.74;100.00;99892.02;1635081;86;21061;-84
2021/11/01 03:01:30;;;;;;;87.53;40.73;;;;;;;0.87;100.00;99895.77;1629350;86;20971;-82
2021/11/01 03:03:57;;;;;;;83.25;38.88;;;;;;;0.95;100.00;99892.66;1627017;86;21087;-82
2021/11/01 03:06:27;;;;;;;77.67;36.88;;;;;;;1.01;100.00;99893.04;1634243;86;21666;-82
2021/11/01 03:08:54;;;;;;;85.10;39.03;;;;;;;1.10;100.00;99883.99;1632890;86;21463;-79
2021/11/01 03:11:22;;;;;;;90.92;41.58;;;;;;;1.15;100.00;99880.02;1632616;86;22190;-79
2021/11/01 03:13:49;;;;;;;75.50;38.00;;;;;;;1.17;100.00;99878.67;1633140;86;20964;-79
2021/11/01 03:16:15;;;;;;;81.00;38.78;;;;;;;1.20;100.00;99875.48;1630755;86;21156;-81
2021/11/01 03:18:49;;;;;;;85.25;41.10;;;;;;;1.23;100.00;99877.70;1628838;87;21496;-81
2021/11/01 03:21:18;;;;;;;78.07;41.02;;;;;;;1.23;100.00;99873.63;1628742;88;21519;-78
2021/11/01 03:23:48;;;;;;;77.55;39.73;;;;;;;1.20;100.00;99876.02;1628813;87;21440;-80
2021/11/01 03:26:21;;;;;;;78.78;39.45;;;;;;;1.15;100.00;99871.37;1625711;87;20965;-81
2021/11/01 03:28:51;;;;;;;71.05;37.40;;;;;;;1.12;100.00;99874.57;1623635;88;21146;-79
2021/11/01 03:31:23;;;;;;;83.45;41.30;;;;;;;1.12;100.00;99871.86;1623620;88;20968;-78
2021/11/01 03:33:51;;;;;;;;;;;;;;;1.12;100.00;99867.81;1616133;88;21044;-79
2021/11/01 03:36:18;;;;;;;70.50;32.48;;;;;;;1.14;100.00;99872.44;1622330;88;20082;-79
2021/11/01 03:38:44;;;;;;;80.45;37.53;;;;;;;1.15;100.00;99869.20;1602349;87;21033;-78
2021/11/01 03:41:11;;;;;;;76.57;37.08;;;;;;;1.16;100.00;99870.28;1613958;88;21830;-79
2021/11/01 03:43:49;;;;;;;78.60;37.38;;;;;;;1.16;100.00;99869.45;1598835;88;21519;-78
2021/11/01 03:46:12;;;;;;;75.20;39.18;;;;;;;1.15;100.00;99860.55;1612996;88;21025;-79
2021/11/01 03:48:43;;;;;;;74.12;36.68;;;;;;;1.14;100.00;99865.68;1613419;88;20948;-81
2021/11/01 03:51:26;;;;;;;85.00;39.10;;;;;;;1.12;100.00;99856.99;1616044;87;21017;-80
2021/11/01 03:53:41;;;;;;;75.42;38.00;;;;;;;1.11;100.00;99859.41;1615617;87;21209;-80
2021/11/01 03:56:09;;;;;;;74.12;37.80;;;;;;;1.08;100.00;99853.14;1623519;88;21555;-79
2021/11/01 03:58:35;;;;;;;71.57;36.35;;;;;;;1.05;100.00;99853.63;1623704;88;21020;-78
2021/11/01 04:01:02;;;;;;;75.78;37.85;;;;;;;1.04;100.00;99848.47;1602507;88;20974;-78
2021/11/01 04:03:29;;;;;;;69.40;35.38;;;;;;;1.01;100.00;99851.13;1623585;87;21032;-75
2021/11/01 04:06:02;;;;;;;89.15;37.13;;;;;;;0.95;100.00;99850.23;1623638;88;21523;-79
2021/11/01 04:08:25;;;;;;;66.50;31.97;;;;;;;0.93;100.00;99849.66;1623047;88;20966;-75
2021/11/01 04:10:51;;;;;;;72.47;36.73;;;;;;;0.95;100.00;99844.00;1623598;88;20932;-78
2021/11/01 04:13:18;;;;;;;73.50;36.90;;;;;;;0.97;100.00;99844.05;1604133;88;21579;-78
2021/11/01 04:15:49;;;;;;;76.35;37.00;;;;;;;0.96;100.00;99837.00;1621280;86;21010;-79
2021/11/01 04:18:23;;;;;;;83.62;39.15;;;;;;;0.95;100.00;99844.83;1620011;88;21084;-82
2021/11/01 04:20:52;;;;;;;78.97;39.65;;;;;;;0.92;100.00;99842.61;1616780;88;20969;-77
2021/11/01 04:23:20;;;;;;;78.33;39.88;;;;;;;0.89;100.00;99840.93;1616549;88;21013;-79
2021/11/01 04:25:48;;;;;;;82.72;39.53;;;;;;;0.81;100.00;99842.16;1616490;88;21005;-78
2021/11/01 04:28:14;;;;;;;85.00;37.93;;;;;;;0.75;100.00;99835.55;1616727;88;20943;-75
2021/11/01 04:30:44;;;;;;;65.92;33.80;;;;;;;0.68;100.00;99834.36;1617894;88;21527;-81
2021/11/01 04:33:14;;;;;;;66.62;34.75;;;;;;;0.64;100.00;99835.91;1620197;88;21002;-78
2021/11/01 04:35:40;;;;;;;80.05;37.45;;;;;;;0.63;100.00;99838.32;1620210;88;20973;-76
2021/11/01 04:41:04;;;;;;;76.65;35.05;;;;;;;0.54;100.00;99833.87;1620141;88;21503;-77
2021/11/01 04:54:24;;;;;;;74.47;35.58;;;;;;;0.75;100.00;99829.61;1617763;88;21457;-74
2021/11/01 04:56:51;;;;;;;73.57;37.70;;;;;;;0.77;100.00;99827.48;1620374;87;21977;-77
2021/11/01 04:59:17;;;;;;;78.85;38.23;;;;;;;0.74;100.00;99824.45;1620175;88;21009;-77
2021/11/01 05:01:51;;;;;;;84.22;39.40;;;;;;;0.71;100.00;99827.11;1619271;87;21063;-77
2021/11/01 05:04:22;;;;;;;79.07;37.93;;;;;;;0.67;100.00;99823.26;1618315;87;20941;-76
2021/11/01 05:06:52;;;;;;;77.15;38.60;;;;;;;0.63;100.00;99822.93;1615319;88;21496;-78
2021/11/01 05:09:23;;;;;;;91.75;40.30;;;;;;;0.62;100.00;99819.94;1621088;88;21181;-72
2021/11/01 05:14:28;;;;;;;91.92;43.48;;;;;;;0.59;100.00;99817.72;1609311;87;21048;-79
2021/11/01 05:24:13;;;;;;;77.37;38.88;;;;;;;0.57;100.00;99819.88;1663755;85;21024;-76
2021/11/01 05:29:11;;;;;;;74.67;39.08;;;;;;;0.62;100.00;99819.13;1619001;87;21068;-90
2021/11/01 05:31:55;;;;;;;89.83;41.58;;;;;;;0.69;100.00;99827.07;1639355;87;21000;-82
2021/11/01 05:34:17;;;;;;;79.03;38.00;;;;;;;0.74;100.00;99820.41;1637903;87;21610;-77
2021/11/01 05:36:41;;;;;;;81.63;38.30;;;;;;;0.81;100.00;99821.06;1639331;87;21028;-86
2021/11/01 05:39:07;;;;;;;76.57;38.75;;;;;;;0.86;100.00;99821.15;1639348;87;21515;-85
2021/11/01 05:41:34;;;;;;;73.83;37.50;;;;;;;0.92;100.00;99820.16;1639516;87;21075;-79
2021/11/01 05:44:02;;;;;;;77.53;40.15;;;;;;;0.96;100.00;99819.96;1639412;87;21032;-81
2021/11/01 05:46:36;;;;;;;82.92;40.52;;;;;;;1.01;100.00;99823.28;1645312;87;21857;-82
2021/11/01 05:49:06;;;;;;;76.80;38.42;;;;;;;1.07;100.00;99822.30;1650285;87;20969;-80
2021/11/01 05:51:34;;;;;;;79.97;40.33;;;;;;;1.12;100.00;99819.67;1650936;86;21520;-80
2021/11/01 05:54:05;;;;;;;76.22;38.45;;;;;;;1.18;100.00;99821.35;1651135;87;21083;-80
2021/11/01 05:59:22;;;;;;;85.75;39.63;;;;;;;1.29;100.00;99824.50;1651176;87;21137;-87
2021/11/01 06:04:14;;;;;;;81.70;40.05;;;;;;;1.42;100.00;99824.69;1651210;85;21079;-82
2021/11/01 06:14:33;;;;;;;76.07;40.15;;;;;;;1.59;100.00;99823.58;1651120;87;21151;-82
2021/11/01 06:17:00;;;;;;;72.75;39.15;;;;;;;1.76;100.00;99830.27;1649762;87;21042;-84
2021/11/01 06:19:27;;;;;;;69.47;37.95;;;;;;;2.08;100.00;99826.88;1650155;86;21015;-76
2021/11/01 06:21:54;;;;;;;72.22;40.05;;;;;;;2.29;100.00;99831.45;1651495;87;21060;-78
2021/11/01 06:24:43;;;;;;;73.45;38.98;;;;;;;2.33;100.00;99831.20;1651230;87;21831;-78
2021/11/01 06:26:51;;;;;;;69.92;37.35;;;;;;;2.29;100.00;99840.94;1648137;86;21063;-72
2021/11/01 06:29:20;;;;;;;70.72;37.42;;;;;;;2.32;100.00;99837.15;1651260;87;21130;-78
2021/11/01 06:31:58;;;;;;;71.22;37.42;;;;;;;2.57;100.00;99836.59;1651220;87;21120;-75
2021/11/01 06:34:32;;;;;;;69.05;37.40;;;;;;;2.94;100.00;99827.15;1649732;86;21088;-83
2021/11/01 06:42:19;;;;;;;;;;;;;;;4.03;97.04;99838.39;1653893;86;21045;-85
2021/11/01 06:58:26;;;;;;;56.33;31.90;;;;;;;5.39;87.16;99845.86;1612936;86;21072;-91
2021/11/01 07:14:07;;;;;;;58.45;31.50;;;;;;;5.45;86.03;99852.94;1648278;86;21052;-91
2021/11/01 07:17:07;;;;;;;52.40;30.92;;;;;;;6.55;80.90;99835.08;1652093;86;21170;-86
2021/11/01 07:22:31;;;;;;;52.30;28.77;;;;;;;6.84;80.27;99825.61;1660568;86;20984;-79
2021/11/01 07:25:16;;;;;;;57.35;32.13;;;;;;;7.00;80.63;99821.38;1658414;86;20961;-82
2021/11/01 07:30:50;;;;;;;64.82;34.45;;;;;;;7.55;79.60;99816.74;1659083;86;21185;-82
2021/11/01 08:29:40;;;;;;;52.15;28.65;;;;;;;12.11;63.76;99748.31;1619326;88;20889;-75
2021/11/01 08:35:28;;;;;;;42.03;25.50;;;;;;;12.38;61.09;99747.75;1619332;88;20916;-77
2021/11/01 08:45:54;;;;;;;38.75;25.20;;;;;;;12.44;60.14;99739.58;1589212;87;21467;-75
2021/11/01 08:48:23;;;;;;;45.12;26.10;;;;;;;12.54;59.74;99737.32;1613028;88;20915;-76
2021/11/01 09:04:37;;;;;;;43.87;25.27;;;;;;;13.01;57.46;99727.77;1619670;87;21553;-73
2021/11/01 09:20:59;;;;;;;40.17;25.05;;;;;;;13.41;55.93;99710.39;1634103;86;20968;-73
2021/11/01 09:28:46;;;;;;;36.35;22.95;;;;;;;13.72;54.81;99701.81;1629728;87;21585;-73
2021/11/01 09:36:55;;;;;;;37.60;22.82;;;;;;;13.77;54.59;99698.88;1623264;88;21039;-74
2021/11/01 09:41:59;;;;;;;34.33;22.45;;;;;;;13.69;54.02;99693.39;1623552;88;20952;-76
2021/11/01 09:44:27;;;;;;;36.80;22.37;;;;;;;13.61;54.63;99688.16;1623195;88;21191;-75
2021/11/01 09:46:58;;;;;;;44.93;24.50;;;;;;;13.73;54.72;99684.69;1623455;88;20913;-75
2021/11/01 09:49:25;;;;;;;42.88;24.02;;;;;;;13.82;54.37;99671.09;1623259;88;21540;-76
2021/11/01 09:51:55;;;;;;;47.73;26.93;;;;;;;13.96;54.08;99672.19;1623341;88;20973;-76
2021/11/01 09:54:25;;;;;;;39.88;25.08;;;;;;;14.03;54.13;99671.66;1623419;88;21378;-73
2021/11/01 09:57:09;;;;;;;39.50;24.92;;;;;;;14.02;53.61;99664.52;1623327;88;39972;-75
2021/11/01 09:59:35;;;;;;;39.40;25.57;;;;;;;13.93;53.82;99659.06;1620440;88;20960;-74
2021/11/01 10:02:04;;;;;;;42.25;24.85;;;;;;;13.95;53.62;99668.38;1617970;86;21459;-74
2021/11/01 10:07:26;;;;;;;43.48;25.92;;;;;;;14.29;53.47;99645.23;1772213;79;27059;-76
2021/11/01 10:09:57;;;;;;;37.70;24.72;;;;;;;14.22;52.74;99652.67;1750680;80;20975;-76
2021/11/01 10:12:32;;;;;;;37.67;24.23;;;;;;;14.25;53.67;99649.24;1764587;80;21795;-85
2021/11/01 10:18:01;;;;;;;70.70;42.48;;;;;;;14.49;52.91;99636.93;1727168;80;21020;-74
2021/11/01 10:20:29;;;;;;;258.82;126.12;;;;;;;14.59;52.30;99635.70;1723310;82;20996;-83
2021/11/01 10:22:56;;;;;;;72.12;40.98;;;;;;;14.63;52.11;99633.88;1713187;82;20901;-75
2021/11/01 10:25:23;;;;;;;40.05;24.85;;;;;;;14.63;51.54;99638.02;1720052;82;21058;-70
2021/11/01 10:27:56;;;;;;;41.02;25.72;;;;;;;14.65;51.90;99634.91;1730646;82;21544;-70
2021/11/01 10:30:30;;;;;;;38.28;24.25;;;;;;;14.61;51.67;99629.27;1726294;82;20951;-71
2021/11/01 10:32:59;;;;;;;48.85;26.10;;;;;;;14.49;51.88;99624.50;1724225;81;21049;-68
2021/11/01 10:35:36;;;;;;;50.58;25.50;;;;;;;14.44;52.56;99619.19;1737580;81;21062;-68
2021/11/01 10:38:25;;;;;;;40.60;25.00;;;;;;;14.60;52.15;99618.55;1724220;81;21537;-72
2021/11/01 11:13:46;;;;;;;33.45;22.22;;;;;;;14.85;52.67;99584.30;1714742;82;21043;-76
2021/11/01 11:16:12;;;;;;;38.40;21.87;;;;;;;14.98;51.69;99586.52;1718087;82;20931;-69
2021/11/01 11:18:55;;;;;;;31.50;19.87;;;;;;;14.62;52.13;99580.34;1750247;80;21120;-77
2021/11/01 11:26:59;;;;;;;35.28;22.35;;;;;;;14.13;54.30;99576.83;1747782;80;21083;-74
2021/11/01 11:29:41;;;;;;;40.12;23.75;;;;;;;14.32;53.56;99575.52;1756443;80;20933;-74
2021/11/01 11:37:38;;;;;;;38.08;22.90;;;;;;;14.39;53.62;99568.88;1674657;80;20987;-70
2021/11/01 11:42:52;;;;;;;38.85;23.47;;;;;;;14.49;52.71;99569.25;1710652;82;21049;-73
2021/11/01 11:50:45;;;;;;;44.73;24.18;;;;;;;14.06;53.81;99552.30;1730819;80;20944;-81
2021/11/01 11:53:20;;;;;;;40.95;24.25;;;;;;;13.89;54.18;99544.40;1749933;80;20945;-68
2021/11/01 11:56:00;;;;;;;39.45;24.55;;;;;;;13.89;55.28;99545.77;1764424;80;21023;-67
2021/11/01 11:58:36;;;;;;;37.35;23.60;;;;;;;13.94;54.77;99546.72;1748483;80;21804;-69
2021/11/01 12:01:35;;;;;;;39.27;25.23;;;;;;;13.63;55.21;99542.44;1751881;80;20974;-72
2021/11/01 12:04:06;;;;;;;34.73;22.55;;;;;;;13.33;56.22;99545.80;1738478;80;21088;-71
2021/11/01 12:07:03;;;;;;;45.60;23.92;;;;;;;13.32;57.09;99546.14;1736724;81;21008;-69
2021/11/01 12:09:42;;;;;;;52.20;25.60;;;;;;;13.53;56.52;99538.70;1728638;80;21055;-73
2021/11/01 12:17:28;;;;;;;39.65;24.82;;;;;;;13.12;56.46;99530.60;1744976;80;21636;-70
2021/11/01 12:20:01;;;;;;;44.95;25.48;;;;;;;12.68;57.65;99533.91;1732046;81;21102;-85
2021/11/01 12:22:34;;;;;;;50.23;27.22;;;;;;;12.36;58.81;99537.48;1726476;82;21039;-79
2021/11/01 12:25:06;;;;;;;48.35;29.12;;;;;;;12.18;59.90;99526.27;1723798;80;21172;-73
2021/11/01 12:27:43;;;;;;;44.98;27.22;;;;;;;12.09;60.33;99533.19;1720789;82;21512;-72
2021/11/01 12:30:16;;;;;;;48.25;27.60;;;;;;;12.08;60.49;99530.77;1732651;81;21047;-69
2021/11/01 12:32:44;;;;;;;50.25;28.35;;;;;;;12.05;60.61;99530.84;1746602;81;21073;-76
2021/11/01 12:35:22;;;;;;;46.75;27.42;;;;;;;11.90;60.98;99533.53;1743164;80;21542;-77
2021/11/01 12:37:59;;;;;;;47.60;27.27;;;;;;;11.81;61.46;99538.22;1669098;84;22158;-70
2021/11/01 12:40:38;;;;;;;50.00;28.42;;;;;;;11.79;61.77;99530.86;1733736;81;20990;-69
2021/11/01 12:46:16;;;;;;;53.98;30.25;;;;;;;11.93;61.74;99531.27;1722783;80;21519;-67
2021/11/01 12:57:05;;;;;;;53.23;30.08;;;;;;;12.71;59.41;99528.52;1748244;81;20963;-72
2021/11/01 12:59:41;;;;;;;47.58;27.55;;;;;;;12.68;59.54;99527.02;1755127;80;21470;-72
2021/11/01 13:02:30;;;;;;;50.75;29.35;;;;;;;12.72;59.70;99532.89;1757473;80;21026;-72
2021/11/01 13:05:01;;;;;;;58.38;32.13;;;;;;;12.73;59.09;99528.19;1759163;80;21158;-70
2021/11/01 13:07:53;;;;;;;54.63;31.62;;;;;;;12.67;59.12;99526.78;1753026;80;21530;-71
2021/11/01 13:19:16;;;;;;;50.28;31.30;;;;;;;13.03;58.35;99512.50;1752507;80;21513;-66
2021/11/01 13:24:51;;;;;;;62.93;33.42;;;;;;;12.73;58.92;99513.04;1751411;80;21108;-66
2021/11/01 13:27:30;;;;;;;56.37;34.67;;;;;;;12.37;59.87;99512.14;1708950;82;21551;-67
2021/11/01 13:35:29;;;;;;;68.10;37.28;;;;;;;11.46;62.83;99499.47;1655837;84;21040;-67
2021/11/01 13:38:01;;;;;;;72.92;38.85;;;;;;;11.38;63.38;99496.15;1702473;83;20995;-74
2021/11/01 13:40:26;;;;;;;75.55;38.28;;;;;;;11.28;63.97;99492.33;1713957;83;20978;-75
2021/11/01 13:42:58;;;;;;;70.17;37.35;;;;;;;11.16;64.48;99487.47;1626382;85;21021;-72
2021/11/01 13:45:24;;;;;;;68.60;37.55;;;;;;;11.13;64.97;99483.42;1665538;84;21164;-77
2021/11/01 13:47:57;;;;;;;64.10;36.83;;;;;;;11.05;65.13;99488.33;1707020;83;21039;-73
2021/11/01 13:50:28;;;;;;;57.50;34.80;;;;;;;10.91;65.67;99485.75;1702150;83;20967;-69
2021/11/01 13:53:00;;;;;;;;;;;;;;;10.78;66.22;99479.81;1703086;83;21016;-71
2021/11/01 13:56:14;;;;;;;65.15;33.53;;;;;;;10.66;66.71;99479.61;1682483;83;20468;-75
2021/11/01 13:58:33;;;;;;;60.70;33.10;;;;;;;10.53;67.29;99484.64;1649122;84;21268;-74
2021/11/01 14:20:05;;;;;;;70.75;38.92;;;;;;;9.60;71.91;99483.21;1657271;83;21161;-68
2021/11/01 14:28:11;;;;;;;77.20;39.88;;;;;;;9.46;72.97;99490.11;1738342;81;20991;-72
2021/11/01 14:33:51;;;;;;;72.45;37.30;;;;;;;9.40;73.49;99487.80;1749616;81;20987;-71
2021/11/01 14:55:41;;;;;;;80.60;43.08;;;;;;;8.66;76.58;99479.03;1749910;80;20889;-67
2021/11/01 15:00:33;;;;;;;86.72;40.78;;;;;;;8.51;76.81;99482.33;1746453;80;21540;-67
2021/11/01 15:15:54;;;;;;;87.95;41.15;;;;;;;8.00;79.50;99483.81;1736742;80;21534;-66
2021/11/01 15:21:03;;;;;;;80.85;40.70;;;;;;;7.92;79.70;99484.50;1750348;81;20953;-67
2021/11/01 15:26:42;;;;;;;78.20;39.90;;;;;;;7.84;80.21;99482.45;1744224;81;21024;-67
2021/11/01 15:37:22;;;;;;;109.07;51.10;;;;;;;7.66;81.62;99488.76;1746826;80;21082;-65
2021/11/01 16:16:01;;;;;;;110.22;49.98;;;;;;;6.78;86.25;99488.96;1738953;80;21530;-70
2021/11/01 16:17:56;;;;;;;116.22;52.83;;;;;;;6.73;86.36;99490.39;1733171;81;21630;-69
2021/11/01 16:20:13;;;;;;;105.85;49.38;;;;;;;6.69;86.82;99492.89;1724073;80;21494;-71
2021/11/01 16:22:41;;;;;;;101.12;51.53;;;;;;;6.64;87.33;99490.22;1699698;83;21016;-71
2021/11/01 16:25:11;;;;;;;101.33;49.73;;;;;;;6.60;87.71;99494.62;1673757;83;21494;-69
2021/11/01 16:27:46;;;;;;;98.05;49.65;;;;;;;6.55;88.04;99491.41;1691333;83;21098;-71
2021/11/01 16:30:18;;;;;;;105.00;50.10;;;;;;;6.53;88.21;99490.08;1677461;83;21545;-69
2021/11/01 16:32:46;;;;;;;97.88;50.08;;;;;;;6.52;88.39;99488.45;1723925;81;21003;-69
2021/11/01 16:35:19;;;;;;;107.10;49.93;;;;;;;6.50;88.82;99500.20;1718719;80;21028;-70
2021/11/01 16:37:50;;;;;;;100.62;51.68;;;;;;;6.48;89.66;99492.31;1679347;83;21244;-71
2021/11/01 16:40:15;;;;;;;109.37;53.20;;;;;;;6.52;89.99;99489.81;1731289;80;20963;-70
2021/11/01 16:42:44;;;;;;;120.80;55.58;;;;;;;6.55;90.08;99492.77;1754953;79;21079;-67
2021/11/01 16:45:17;;;;;;;116.03;58.58;;;;;;;6.56;90.22;99493.03;1710403;81;20996;-69
2021/11/01 16:47:46;;;;;;;129.80;62.27;;;;;;;6.58;90.42;99492.19;1753175;80;21078;-72
2021/11/01 16:50:16;;;;;;;128.45;59.75;;;;;;;6.57;90.59;99493.30;1703945;82;21153;-70
2021/11/01 16:52:44;;;;;;;130.63;59.55;;;;;;;6.59;90.80;99492.45;1676070;84;21118;-69
2021/11/01 16:55:21;;;;;;;120.85;59.03;;;;;;;6.60;90.98;99492.72;1677169;84;20995;-70
2021/11/01 16:57:58;;;;;;;128.68;62.98;;;;;;;6.63;91.08;99495.41;1675339;83;21035;-69
2021/11/01 17:00:37;;;;;;;130.22;64.37;;;;;;;6.65;91.28;99489.12;1646969;84;21684;-66
2021/11/01 17:24:44;;;;;;;116.03;54.65;;;;;;;6.82;91.49;99477.17;1675595;84;21522;-65
2021/11/01 17:27:31;;;;;;;112.77;53.55;;;;;;;6.79;91.18;99475.58;1669884;84;21567;-65
2021/11/01 17:35:57;;;;;;;108.90;53.08;;;;;;;6.71;91.75;99465.31;1690716;83;21051;-66
2021/11/01 18:40:21;;;;;;;98.92;49.63;;;;;;;6.64;93.53;99417.94;1716586;81;21213;-68
2021/11/01 18:51:07;;;;;;;82.08;41.30;;;;;;;6.53;94.64;99407.70;1753220;81;21073;-78
2021/11/01 18:53:41;;;;;;;80.95;42.45;;;;;;;6.53;94.77;99412.34;1744281;80;21686;-81
2021/11/01 18:56:11;;;;;;;82.10;40.78;;;;;;;6.52;94.81;99413.45;1691811;83;21601;-79
2021/11/01 18:58:41;;;;;;;83.70;42.83;;;;;;;6.50;94.77;99408.29;1748165;81;21054;-76
2021/11/01 19:01:10;;;;;;;85.38;42.00;;;;;;;6.49;94.89;99412.13;1691249;83;21007;-73
2021/11/01 19:03:43;;;;;;;78.37;39.63;;;;;;;6.48;95.00;99405.59;1687661;83;21134;-77
2021/11/01 19:06:24;;;;;;;76.33;39.23;;;;;;;6.46;95.02;99397.70;1744140;81;21886;-69
2021/11/01 19:14:29;;;;;;;82.55;40.95;;;;;;;6.37;94.95;99394.00;1738452;80;20946;-68
2021/11/01 20:08:10;;;;;;;82.15;42.48;;;;;;;6.01;99.04;99365.02;1713050;82;21085;-64
2021/11/01 21:24:35;;;;;;;60.00;33.02;;;;;;;5.90;100.00;99322.64;1675304;84;23307;-64
2021/11/01 21:27:00;;;;;;;60.73;33.38;;;;;;;5.91;100.00;99322.89;1690106;84;20987;-65
2021/11/01 21:29:27;;;;;;;54.05;30.65;;;;;;;5.92;100.00;99321.80;1689954;84;21431;-65
2021/11/01 21:31:54;;;;;;;64.00;32.28;;;;;;;5.93;100.00;99322.87;1690212;84;21467;-65
2021/11/01 21:34:38;;;;;;;51.80;30.08;;;;;;;5.94;100.00;99323.68;1690073;84;20936;-65
2021/11/01 21:37:06;;;;;;;61.70;31.87;;;;;;;5.93;100.00;99318.78;1689923;85;23301;-64
2021/11/01 21:39:33;;;;;;;53.80;30.32;;;;;;;5.95;100.00;99316.58;1688905;84;21039;-64
2021/11/01 21:42:00;;;;;;;62.48;33.05;;;;;;;5.94;100.00;99309.50;1673898;84;20955;-64
2021/11/01 21:44:27;;;;;;;63.02;33.20;;;;;;;5.95;100.00;99319.30;1688439;84;20952;-64
2021/11/01 21:46:54;;;;;;;63.23;32.75;;;;;;;5.95;100.00;99306.23;1687053;85;20968;-65
2021/11/01 21:49:20;;;;;;;61.95;31.87;;;;;;;5.94;100.00;99305.97;1683403;83;21123;-64
2021/11/01 21:51:47;;;;;;;59.83;32.23;;;;;;;5.93;100.00;99305.70;1705851;83;21435;-65